createdAt,value
2022-12-26T00:00:13.005Z,10.50
2022-12-26T00:01:12.933Z,10.30
2022-12-26T00:02:12.927Z,9.00
2022-12-26T00:03:13.047Z,9.70
2022-12-26T00:04:50.901Z,10.80
2022-12-26T00:05:12.919Z,9.90
2022-12-26T00:06:12.931Z,11.80
2022-12-26T00:07:12.915Z,16.40
2022-12-26T00:08:12.906Z,15.00
2022-12-26T00:09:12.910Z,12.30
2022-12-26T00:10:12.902Z,11.60
2022-12-26T00:11:12.892Z,10.10
2022-12-26T00:12:12.895Z,9.80
2022-12-26T00:13:38.208Z,9.30
2022-12-26T00:14:12.884Z,11.80
2022-12-26T00:15:12.883Z,9.50
2022-12-26T00:16:13.068Z,11.30
2022-12-26T00:17:12.877Z,11.50
2022-12-26T00:18:12.870Z,12.70
2022-12-26T00:19:12.873Z,11.50
2022-12-26T00:20:12.872Z,11.80
2022-12-26T00:21:12.876Z,12.60
2022-12-26T00:22:12.880Z,11.30
2022-12-26T00:23:12.856Z,11.00
2022-12-26T00:24:12.872Z,10.30
2022-12-26T00:25:12.859Z,10.40
2022-12-26T00:26:12.850Z,10.70
2022-12-26T00:27:12.851Z,11.20
2022-12-26T00:28:12.838Z,11.70
2022-12-26T00:29:12.836Z,11.10
2022-12-26T00:30:12.832Z,10.10
2022-12-26T00:31:12.867Z,11.60
2022-12-26T00:32:12.826Z,10.20
2022-12-26T00:33:12.832Z,12.10
2022-12-26T00:34:12.817Z,10.80
2022-12-26T00:35:12.817Z,11.30
2022-12-26T00:36:12.813Z,12.90
2022-12-26T00:37:12.809Z,11.10
2022-12-26T00:38:12.826Z,10.60
2022-12-26T00:39:12.802Z,11.90
2022-12-26T00:40:12.799Z,10.80
2022-12-26T00:41:12.796Z,12.50
2022-12-26T00:42:12.795Z,10.90
2022-12-26T00:43:12.790Z,12.50
2022-12-26T00:44:12.792Z,9.60
2022-12-26T00:45:12.783Z,9.00
2022-12-26T00:46:12.785Z,10.80
2022-12-26T00:47:12.923Z,13.00
2022-12-26T00:48:12.772Z,9.20
2022-12-26T00:49:12.774Z,9.60
2022-12-26T00:50:15.817Z,9.50
2022-12-26T00:51:12.772Z,8.90
2022-12-26T00:52:12.760Z,8.20
2022-12-26T00:53:12.756Z,10.60
2022-12-26T00:54:12.772Z,9.10
2022-12-26T00:55:12.749Z,9.10
2022-12-26T00:56:12.747Z,9.70
2022-12-26T00:57:12.751Z,8.30
2022-12-26T00:58:12.755Z,7.50
2022-12-26T00:59:12.742Z,8.10
2022-12-26T01:00:12.746Z,7.50
2022-12-26T01:01:12.846Z,6.90
2022-12-26T01:02:12.925Z,8.00
2022-12-26T01:03:12.852Z,7.80
2022-12-26T01:04:12.724Z,6.70
2022-12-26T01:05:12.727Z,6.60
2022-12-26T01:06:12.718Z,7.00
2022-12-26T01:07:12.717Z,8.40
2022-12-26T01:08:19.783Z,7.40
2022-12-26T01:09:12.705Z,7.40
2022-12-26T01:10:12.721Z,6.90
2022-12-26T01:11:12.696Z,6.40
2022-12-26T01:12:12.700Z,7.40
2022-12-26T01:13:12.691Z,7.60
2022-12-26T01:14:12.711Z,8.20
2022-12-26T01:15:12.686Z,6.70
2022-12-26T01:16:12.747Z,6.80
2022-12-26T01:17:12.678Z,7.40
2022-12-26T01:18:12.675Z,7.40
2022-12-26T01:19:12.672Z,6.80
2022-12-26T01:20:12.669Z,6.40
2022-12-26T01:21:12.666Z,6.90
2022-12-26T01:22:12.668Z,7.40
2022-12-26T01:23:12.665Z,7.30
2022-12-26T01:24:12.658Z,6.20
2022-12-26T01:25:12.652Z,7.40
2022-12-26T01:26:17.048Z,6.90
2022-12-26T01:27:12.645Z,7.10
2022-12-26T01:28:12.643Z,7.50
2022-12-26T01:29:12.642Z,7.20
2022-12-26T01:30:12.637Z,8.30
2022-12-26T01:31:12.658Z,7.90
2022-12-26T01:32:12.676Z,7.20
2022-12-26T01:33:12.626Z,6.30
2022-12-26T01:34:12.624Z,6.80
2022-12-26T01:35:12.822Z,8.30
2022-12-26T01:36:12.613Z,6.50
2022-12-26T01:37:12.612Z,7.90
2022-12-26T01:38:12.621Z,7.00
2022-12-26T01:39:12.612Z,6.90
2022-12-26T01:40:12.615Z,7.50
2022-12-26T01:41:12.600Z,6.40
2022-12-26T01:42:12.622Z,7.60
2022-12-26T01:43:12.593Z,8.50
2022-12-26T01:44:12.594Z,8.00
2022-12-26T01:45:12.587Z,7.90
2022-12-26T01:46:12.662Z,7.80
2022-12-26T01:47:12.582Z,7.20
2022-12-26T01:48:12.575Z,6.60
2022-12-26T01:49:12.576Z,7.60
2022-12-26T01:50:12.568Z,6.70
2022-12-26T01:51:12.567Z,6.70
2022-12-26T01:52:12.576Z,6.60
2022-12-26T01:53:12.560Z,5.90
2022-12-26T01:54:40.081Z,5.50
2022-12-26T01:55:12.557Z,7.00
2022-12-26T01:56:12.550Z,6.00
2022-12-26T01:57:12.550Z,7.00
2022-12-26T01:58:12.567Z,7.30
2022-12-26T01:59:12.541Z,8.20
2022-12-26T02:00:12.563Z,6.90
2022-12-26T02:01:12.714Z,6.40
2022-12-26T02:02:12.779Z,6.20
2022-12-26T02:03:12.607Z,7.70
2022-12-26T02:04:12.532Z,6.40
2022-12-26T02:05:12.530Z,7.10
2022-12-26T02:06:12.525Z,7.50
2022-12-26T02:07:12.513Z,7.60
2022-12-26T02:08:12.509Z,7.60
2022-12-26T02:09:12.510Z,6.10
2022-12-26T02:10:12.508Z,8.10
2022-12-26T02:11:12.509Z,7.50
2022-12-26T02:12:34.834Z,7.10
2022-12-26T02:13:12.498Z,7.00
2022-12-26T02:14:12.509Z,6.40
2022-12-26T02:15:12.514Z,6.30
2022-12-26T02:16:12.563Z,6.40
2022-12-26T02:17:12.505Z,7.10
2022-12-26T02:18:12.482Z,6.30
2022-12-26T02:19:12.474Z,6.90
2022-12-26T02:20:12.470Z,6.20
2022-12-26T02:21:12.477Z,6.50
2022-12-26T02:22:12.474Z,6.60
2022-12-26T02:23:12.469Z,7.80
2022-12-26T02:24:12.457Z,6.50
2022-12-26T02:25:12.454Z,7.30
2022-12-26T02:26:12.449Z,7.30
2022-12-26T02:27:12.464Z,8.40
2022-12-26T02:28:12.452Z,6.60
2022-12-26T02:29:12.441Z,6.80
2022-12-26T02:30:12.459Z,7.40
2022-12-26T02:31:12.434Z,6.80
2022-12-26T02:32:12.495Z,8.20
2022-12-26T02:33:12.438Z,7.60
2022-12-26T02:34:12.455Z,6.50
2022-12-26T02:35:12.624Z,7.00
2022-12-26T02:36:12.427Z,8.90
2022-12-26T02:37:12.415Z,6.70
2022-12-26T02:38:12.414Z,7.20
2022-12-26T02:39:43.636Z,6.70
2022-12-26T02:40:12.403Z,5.90
2022-12-26T02:41:12.404Z,6.70
2022-12-26T02:42:12.402Z,8.30
2022-12-26T02:43:12.398Z,6.20
2022-12-26T02:44:12.392Z,7.80
2022-12-26T02:45:12.394Z,6.20
2022-12-26T02:46:12.447Z,6.50
2022-12-26T02:47:12.390Z,7.50
2022-12-26T02:48:12.384Z,7.60
2022-12-26T02:49:12.378Z,7.00
2022-12-26T02:50:12.376Z,7.80
2022-12-26T02:51:12.375Z,6.80
2022-12-26T02:52:12.372Z,7.70
2022-12-26T02:53:12.364Z,6.80
2022-12-26T02:54:12.365Z,8.00
2022-12-26T02:55:12.358Z,7.50
2022-12-26T02:56:12.368Z,7.40
2022-12-26T02:57:12.351Z,8.50
2022-12-26T02:58:12.357Z,7.20
2022-12-26T02:59:12.350Z,8.60
2022-12-26T03:00:12.339Z,7.60
2022-12-26T03:01:12.490Z,7.20
2022-12-26T03:02:12.516Z,6.80
2022-12-26T03:03:12.430Z,8.20
2022-12-26T03:04:12.331Z,7.10
2022-12-26T03:05:12.327Z,6.00
2022-12-26T03:06:12.321Z,6.10
2022-12-26T03:07:12.320Z,5.50
2022-12-26T03:08:12.313Z,6.60
2022-12-26T03:09:12.318Z,6.70
2022-12-26T03:10:12.306Z,4.80
2022-12-26T03:11:12.304Z,6.20
2022-12-26T03:12:12.306Z,7.20
2022-12-26T03:13:12.340Z,4.70
2022-12-26T03:14:12.292Z,4.70
2022-12-26T03:15:12.295Z,4.30
2022-12-26T03:16:12.389Z,5.70
2022-12-26T03:17:12.282Z,4.80
2022-12-26T03:18:12.300Z,5.20
2022-12-26T03:19:12.289Z,5.00
2022-12-26T03:20:12.342Z,5.80
2022-12-26T03:21:12.273Z,5.40
2022-12-26T03:22:12.271Z,4.90
2022-12-26T03:23:12.265Z,6.20
2022-12-26T03:24:12.257Z,5.40
2022-12-26T03:25:12.263Z,4.70
2022-12-26T03:26:12.259Z,5.10
2022-12-26T03:27:12.252Z,6.10
2022-12-26T03:28:14.057Z,5.50
2022-12-26T03:29:17.179Z,6.10
2022-12-26T03:30:12.240Z,5.50
2022-12-26T03:31:12.341Z,5.80
2022-12-26T03:32:12.245Z,5.70
2022-12-26T03:33:12.239Z,5.60
2022-12-26T03:34:12.244Z,5.80
2022-12-26T03:35:12.580Z,6.00
2022-12-26T03:36:12.221Z,5.10
2022-12-26T03:37:12.231Z,5.40
2022-12-26T03:38:12.218Z,5.00
2022-12-26T03:39:12.212Z,5.30
2022-12-26T03:40:12.209Z,5.40
2022-12-26T03:41:12.205Z,5.40
2022-12-26T03:42:12.201Z,6.10
2022-12-26T03:43:12.199Z,5.50
2022-12-26T03:44:12.207Z,5.60
2022-12-26T03:45:12.193Z,6.80
2022-12-26T03:46:12.259Z,5.70
2022-12-26T03:47:12.194Z,5.40
2022-12-26T03:48:12.182Z,6.30
2022-12-26T03:49:12.182Z,5.80
2022-12-26T03:50:12.261Z,6.00
2022-12-26T03:51:12.173Z,6.10
2022-12-26T03:52:12.169Z,5.90
2022-12-26T03:53:12.185Z,7.10
2022-12-26T03:54:12.164Z,7.00
2022-12-26T03:55:12.164Z,6.50
2022-12-26T03:56:12.158Z,6.80
2022-12-26T03:57:12.153Z,7.20
2022-12-26T03:58:12.149Z,6.80
2022-12-26T03:59:12.188Z,7.10
2022-12-26T04:00:12.145Z,6.50
2022-12-26T04:01:12.231Z,7.20
2022-12-26T04:02:12.227Z,6.50
2022-12-26T04:03:12.172Z,6.80
2022-12-26T04:04:12.130Z,6.50
2022-12-26T04:05:12.127Z,6.90
2022-12-26T04:06:12.177Z,7.30
2022-12-26T04:07:12.118Z,7.40
2022-12-26T04:08:18.078Z,8.20
2022-12-26T04:09:12.112Z,7.80
2022-12-26T04:10:12.110Z,7.40
2022-12-26T04:11:12.119Z,8.30
2022-12-26T04:12:12.103Z,7.60
2022-12-26T04:13:12.103Z,7.50
2022-12-26T04:14:12.115Z,8.10
2022-12-26T04:15:12.091Z,8.00
2022-12-26T04:16:12.171Z,8.10
2022-12-26T04:17:12.109Z,8.30
2022-12-26T04:18:12.104Z,8.40
2022-12-26T04:19:12.087Z,9.00
2022-12-26T04:20:12.090Z,9.50
2022-12-26T04:21:12.073Z,8.40
2022-12-26T04:22:12.087Z,9.00
2022-12-26T04:23:12.069Z,8.50
2022-12-26T04:24:12.081Z,8.20
2022-12-26T04:25:12.067Z,9.00
2022-12-26T04:26:12.055Z,8.10
2022-12-26T04:27:12.061Z,8.90
2022-12-26T04:28:12.049Z,9.10
2022-12-26T04:29:12.044Z,8.90
2022-12-26T04:30:12.039Z,8.10
2022-12-26T04:31:12.089Z,8.70
2022-12-26T04:32:12.032Z,8.10
2022-12-26T04:33:12.033Z,8.30
2022-12-26T04:34:12.025Z,8.50
2022-12-26T04:35:12.034Z,8.30
2022-12-26T04:36:12.384Z,9.90
2022-12-26T04:37:12.026Z,8.90
2022-12-26T04:38:12.037Z,9.90
2022-12-26T04:39:12.009Z,8.70
2022-12-26T04:40:12.008Z,8.90
2022-12-26T04:41:12.020Z,8.50
2022-12-26T04:42:12.000Z,9.10
2022-12-26T04:43:49.348Z,9.10
2022-12-26T04:44:12.028Z,8.30
2022-12-26T04:45:11.991Z,8.20
2022-12-26T04:46:12.075Z,8.00
2022-12-26T04:47:11.984Z,8.30
2022-12-26T04:48:11.980Z,8.30
2022-12-26T04:49:11.979Z,8.40
2022-12-26T04:50:11.999Z,8.10
2022-12-26T04:51:11.970Z,7.50
2022-12-26T04:52:11.970Z,8.50
2022-12-26T04:53:11.965Z,7.90
2022-12-26T04:54:11.978Z,8.30
2022-12-26T04:55:11.959Z,8.10
2022-12-26T04:56:11.959Z,8.20
2022-12-26T04:57:11.953Z,8.10
2022-12-26T04:58:11.945Z,8.00
2022-12-26T04:59:11.944Z,7.60
2022-12-26T05:00:11.939Z,7.20
2022-12-26T05:01:12.050Z,8.30
2022-12-26T05:02:12.040Z,7.20
2022-12-26T05:03:17.995Z,6.80
2022-12-26T05:04:11.925Z,7.90
2022-12-26T05:05:11.930Z,7.30
2022-12-26T05:06:11.930Z,7.80
2022-12-26T05:07:11.914Z,7.90
2022-12-26T05:08:11.910Z,8.30
2022-12-26T05:09:11.919Z,8.00
2022-12-26T05:10:11.926Z,8.10
2022-12-26T05:11:11.901Z,8.00
2022-12-26T05:12:11.901Z,7.50
2022-12-26T05:13:11.896Z,8.40
2022-12-26T05:14:11.913Z,7.60
2022-12-26T05:15:11.895Z,8.00
2022-12-26T05:16:11.965Z,8.70
2022-12-26T05:17:11.884Z,8.30
2022-12-26T05:18:11.890Z,7.50
2022-12-26T05:19:11.878Z,7.60
2022-12-26T05:20:11.898Z,7.70
2022-12-26T05:21:11.876Z,8.20
2022-12-26T05:22:11.866Z,8.20
2022-12-26T05:23:11.863Z,8.40
2022-12-26T05:24:11.869Z,7.70
2022-12-26T05:25:11.862Z,8.00
2022-12-26T05:26:11.870Z,7.40
2022-12-26T05:27:11.856Z,8.60
2022-12-26T05:28:11.850Z,7.90
2022-12-26T05:29:11.848Z,8.10
2022-12-26T05:30:11.843Z,8.40
2022-12-26T05:31:11.918Z,8.30
2022-12-26T05:32:11.835Z,8.10
2022-12-26T05:33:11.834Z,8.60
2022-12-26T05:34:11.857Z,8.40
2022-12-26T05:35:11.825Z,8.90
2022-12-26T05:36:11.826Z,8.60
2022-12-26T05:37:11.821Z,8.40
2022-12-26T05:38:11.810Z,7.90
2022-12-26T05:39:11.806Z,9.60
2022-12-26T05:40:11.813Z,8.40
2022-12-26T05:41:12.207Z,9.40
2022-12-26T05:42:11.816Z,9.50
2022-12-26T05:43:11.798Z,9.00
2022-12-26T05:44:11.798Z,9.50
2022-12-26T05:45:11.790Z,9.20
2022-12-26T05:46:11.853Z,9.20
2022-12-26T05:47:11.781Z,8.90
2022-12-26T05:48:11.777Z,8.90
2022-12-26T05:49:11.794Z,8.40
2022-12-26T05:50:11.771Z,9.10
2022-12-26T05:51:11.778Z,8.90
2022-12-26T05:52:11.768Z,8.70
2022-12-26T05:53:11.764Z,9.00
2022-12-26T05:54:11.762Z,7.90
2022-12-26T05:55:11.761Z,8.60
2022-12-26T05:56:11.758Z,9.60
2022-12-26T05:57:11.754Z,10.40
2022-12-26T05:58:11.766Z,9.00
2022-12-26T05:59:11.756Z,9.30
2022-12-26T06:00:11.742Z,9.20
2022-12-26T06:01:11.841Z,9.70
2022-12-26T06:02:11.901Z,9.30
2022-12-26T06:03:11.922Z,9.40
2022-12-26T06:04:11.739Z,9.00
2022-12-26T06:05:11.723Z,9.10
2022-12-26T06:06:11.718Z,9.20
2022-12-26T06:07:11.713Z,9.30
2022-12-26T06:08:11.812Z,8.60
2022-12-26T06:09:11.710Z,7.70
2022-12-26T06:10:11.718Z,8.40
2022-12-26T06:11:11.712Z,8.00
2022-12-26T06:12:11.716Z,8.60
2022-12-26T06:13:11.704Z,8.60
2022-12-26T06:14:11.712Z,8.30
2022-12-26T06:15:11.692Z,7.70
2022-12-26T06:16:11.778Z,7.70
2022-12-26T06:17:11.684Z,7.80
2022-12-26T06:18:11.690Z,7.80
2022-12-26T06:19:11.675Z,8.20
2022-12-26T06:20:11.671Z,7.90
2022-12-26T06:21:11.682Z,7.50
2022-12-26T06:22:11.678Z,7.90
2022-12-26T06:23:11.673Z,8.20
2022-12-26T06:24:11.671Z,8.60
2022-12-26T06:25:11.657Z,8.70
2022-12-26T06:26:11.652Z,8.60
2022-12-26T06:27:11.653Z,8.90
2022-12-26T06:28:11.646Z,9.00
2022-12-26T06:29:11.707Z,8.90
2022-12-26T06:30:11.660Z,8.90
2022-12-26T06:31:11.731Z,9.20
2022-12-26T06:32:11.637Z,8.80
2022-12-26T06:33:11.638Z,9.50
2022-12-26T06:34:11.626Z,9.10
2022-12-26T06:35:11.623Z,9.30
2022-12-26T06:36:11.619Z,9.60
2022-12-26T06:37:11.613Z,10.20
2022-12-26T06:38:11.614Z,9.70
2022-12-26T06:39:11.616Z,10.60
2022-12-26T06:40:11.603Z,10.90
2022-12-26T06:41:11.603Z,11.00
2022-12-26T06:42:11.600Z,11.20
2022-12-26T06:43:11.592Z,11.30
2022-12-26T06:44:16.239Z,9.70
2022-12-26T06:45:11.605Z,10.30
2022-12-26T06:46:11.814Z,10.50
2022-12-26T06:47:11.689Z,10.20
2022-12-26T06:48:11.577Z,9.70
2022-12-26T06:49:11.584Z,9.90
2022-12-26T06:50:11.590Z,9.60
2022-12-26T06:51:11.566Z,9.50
2022-12-26T06:52:11.565Z,9.90
2022-12-26T06:53:11.561Z,8.90
2022-12-26T06:54:11.558Z,9.50
2022-12-26T06:55:11.560Z,8.80
2022-12-26T06:56:11.548Z,9.00
2022-12-26T06:57:11.545Z,8.50
2022-12-26T06:58:11.546Z,8.50
2022-12-26T06:59:11.542Z,8.50
2022-12-26T07:00:11.547Z,7.90
2022-12-26T07:01:11.640Z,7.90
2022-12-26T07:02:11.723Z,7.60
2022-12-26T07:03:11.573Z,7.90
2022-12-26T07:04:11.529Z,7.90
2022-12-26T07:05:11.521Z,7.60
2022-12-26T07:06:11.517Z,7.70
2022-12-26T07:07:11.515Z,7.30
2022-12-26T07:08:11.511Z,6.90
2022-12-26T07:09:11.507Z,7.40
2022-12-26T07:10:11.511Z,7.30
2022-12-26T07:11:11.497Z,7.10
2022-12-26T07:12:11.497Z,6.80
2022-12-26T07:13:11.492Z,7.10
2022-12-26T07:14:11.516Z,6.70
2022-12-26T07:15:11.495Z,6.80
2022-12-26T07:16:11.497Z,6.10
2022-12-26T07:17:11.480Z,6.10
2022-12-26T07:18:11.500Z,6.10
2022-12-26T07:19:11.472Z,5.90
2022-12-26T07:20:11.488Z,6.00
2022-12-26T07:21:11.476Z,5.90
2022-12-26T07:22:11.469Z,5.70
2022-12-26T07:23:11.464Z,5.40
2022-12-26T07:24:11.457Z,5.50
2022-12-26T07:25:11.452Z,5.30
2022-12-26T07:26:11.459Z,4.80
2022-12-26T07:27:11.445Z,5.60
2022-12-26T07:28:11.448Z,5.50
2022-12-26T07:29:11.442Z,5.10
2022-12-26T07:30:11.466Z,4.70
2022-12-26T07:31:11.510Z,4.30
2022-12-26T07:32:11.505Z,4.40
2022-12-26T07:33:11.427Z,4.50
2022-12-26T07:34:11.467Z,3.80
2022-12-26T07:35:11.422Z,4.50
2022-12-26T07:36:11.422Z,3.80
2022-12-26T07:37:11.414Z,3.50
2022-12-26T07:38:11.411Z,3.50
2022-12-26T07:39:11.415Z,3.40
2022-12-26T07:40:11.403Z,4.40
2022-12-26T07:41:11.413Z,3.50
2022-12-26T07:42:11.397Z,3.60
2022-12-26T07:43:11.393Z,3.40
2022-12-26T07:44:11.391Z,3.50
2022-12-26T07:45:11.386Z,3.70
2022-12-26T07:46:11.407Z,4.50
2022-12-26T07:47:11.376Z,3.30
2022-12-26T07:48:11.378Z,2.90
2022-12-26T07:49:11.374Z,3.10
2022-12-26T07:50:11.387Z,3.50
2022-12-26T07:51:11.364Z,3.10
2022-12-26T07:52:11.363Z,3.50
2022-12-26T07:53:11.360Z,3.20
2022-12-26T07:54:12.043Z,3.20
2022-12-26T07:55:11.348Z,3.20
2022-12-26T07:56:11.352Z,3.60
2022-12-26T07:58:11.338Z,3.30
2022-12-26T07:59:11.336Z,3.60
2022-12-26T08:00:11.349Z,4.90
2022-12-26T08:01:11.541Z,3.40
2022-12-26T08:02:11.537Z,2.70
2022-12-26T08:03:11.623Z,3.90
2022-12-26T08:04:11.329Z,3.30
2022-12-26T08:05:11.317Z,3.20
2022-12-26T08:06:11.337Z,3.50
2022-12-26T08:07:11.663Z,2.70
2022-12-26T08:08:11.310Z,4.10
2022-12-26T08:09:11.306Z,2.60
2022-12-26T08:10:11.304Z,3.70
2022-12-26T08:11:11.301Z,2.80
2022-12-26T08:12:11.298Z,4.70
2022-12-26T08:13:11.301Z,3.00
2022-12-26T08:14:11.291Z,3.30
2022-12-26T08:15:11.280Z,2.60
2022-12-26T08:16:11.345Z,3.00
2022-12-26T08:17:11.330Z,3.50
2022-12-26T08:18:11.272Z,3.30
2022-12-26T08:19:11.267Z,2.70
2022-12-26T08:20:11.267Z,4.20
2022-12-26T08:21:11.270Z,3.40
2022-12-26T08:22:11.282Z,2.40
2022-12-26T08:23:11.337Z,2.80
2022-12-26T08:24:11.255Z,3.60
2022-12-26T08:25:12.509Z,2.10
2022-12-26T08:26:11.265Z,3.00
2022-12-26T08:27:11.240Z,2.50
2022-12-26T08:28:11.238Z,2.30
2022-12-26T08:29:11.231Z,2.70
2022-12-26T08:30:11.241Z,4.30
2022-12-26T08:31:11.227Z,2.60
2022-12-26T08:32:11.222Z,2.70
2022-12-26T08:33:11.217Z,3.60
2022-12-26T08:34:11.217Z,2.60
2022-12-26T08:35:11.211Z,3.10
2022-12-26T08:36:11.214Z,2.30
2022-12-26T08:37:11.207Z,2.60
2022-12-26T08:38:11.222Z,2.50
2022-12-26T08:39:11.195Z,2.90
2022-12-26T08:40:12.778Z,3.60
2022-12-26T08:41:11.198Z,3.00
2022-12-26T08:42:11.192Z,2.90
2022-12-26T08:43:31.045Z,2.90
2022-12-26T08:44:28.041Z,1.90
2022-12-26T08:45:11.184Z,1.80
2022-12-26T08:46:11.207Z,1.60
2022-12-26T08:47:11.169Z,1.90
2022-12-26T08:48:11.167Z,2.20
2022-12-26T08:49:11.172Z,2.10
2022-12-26T08:50:11.161Z,2.40
2022-12-26T08:51:11.160Z,2.20
2022-12-26T08:52:11.211Z,2.00
2022-12-26T08:53:11.167Z,2.80
2022-12-26T08:54:11.169Z,3.00
2022-12-26T08:55:11.143Z,1.70
2022-12-26T08:56:11.141Z,2.30
2022-12-26T08:57:11.134Z,2.40
2022-12-26T08:58:11.148Z,2.00
2022-12-26T08:59:11.129Z,2.40
2022-12-26T09:00:11.127Z,2.90
2022-12-26T09:01:11.291Z,1.70
2022-12-26T09:02:11.385Z,2.90
2022-12-26T09:03:11.143Z,2.20
2022-12-26T09:04:11.126Z,2.50
2022-12-26T09:05:11.111Z,2.50
2022-12-26T09:06:11.105Z,3.10
2022-12-26T09:07:11.107Z,3.60
2022-12-26T09:08:11.095Z,2.90
2022-12-26T09:09:11.098Z,2.10
2022-12-26T09:10:11.107Z,2.40
2022-12-26T09:11:11.086Z,2.70
2022-12-26T09:12:11.084Z,2.30
2022-12-26T09:13:11.466Z,3.00
2022-12-26T09:14:11.079Z,2.60
2022-12-26T09:15:11.074Z,2.40
2022-12-26T09:16:11.071Z,2.10
2022-12-26T09:17:11.115Z,3.00
2022-12-26T09:18:11.062Z,2.70
2022-12-26T09:19:11.064Z,2.10
2022-12-26T09:20:11.059Z,3.00
2022-12-26T09:21:11.054Z,2.50
2022-12-26T09:22:11.050Z,3.90
2022-12-26T09:23:11.048Z,2.60
2022-12-26T09:24:11.045Z,2.00
2022-12-26T09:25:11.036Z,3.00
2022-12-26T09:26:11.059Z,1.80
2022-12-26T09:27:11.029Z,2.30
2022-12-26T09:28:11.032Z,2.50
2022-12-26T09:29:11.020Z,1.90
2022-12-26T09:30:11.020Z,3.60
2022-12-26T09:31:11.179Z,3.20
2022-12-26T09:32:11.023Z,3.00
2022-12-26T09:33:11.010Z,2.50
2022-12-26T09:34:11.022Z,2.70
2022-12-26T09:35:11.002Z,2.80
2022-12-26T09:36:14.549Z,3.60
2022-12-26T09:37:10.994Z,4.50
2022-12-26T09:38:11.000Z,3.40
2022-12-26T09:39:10.987Z,2.70
2022-12-26T09:40:10.991Z,5.40
2022-12-26T09:41:10.981Z,2.20
2022-12-26T09:42:10.995Z,3.20
2022-12-26T09:43:10.974Z,2.10
2022-12-26T09:44:10.971Z,3.50
2022-12-26T09:45:10.978Z,2.90
2022-12-26T09:46:11.098Z,2.10
2022-12-26T09:47:10.961Z,3.10
2022-12-26T09:48:10.956Z,3.40
2022-12-26T09:49:10.955Z,2.10
2022-12-26T09:50:10.953Z,2.30
2022-12-26T09:51:10.947Z,2.50
2022-12-26T09:52:10.949Z,1.90
2022-12-26T09:53:10.939Z,3.50
2022-12-26T09:54:10.937Z,3.40
2022-12-26T09:55:10.929Z,2.40
2022-12-26T09:56:23.748Z,3.70
2022-12-26T09:57:14.903Z,3.50
2022-12-26T09:58:10.943Z,2.90
2022-12-26T09:59:10.922Z,2.30
2022-12-26T10:00:10.966Z,3.80
2022-12-26T10:01:11.049Z,3.20
2022-12-26T10:02:11.066Z,2.90
2022-12-26T10:03:10.904Z,4.40
2022-12-26T10:04:10.931Z,4.00
2022-12-26T10:05:10.902Z,3.40
2022-12-26T10:06:10.895Z,4.40
2022-12-26T10:07:10.898Z,4.50
2022-12-26T10:08:10.892Z,4.40
2022-12-26T10:09:10.889Z,4.50
2022-12-26T10:10:10.880Z,3.60
2022-12-26T10:11:10.878Z,3.00
2022-12-26T10:12:10.875Z,4.00
2022-12-26T10:13:10.868Z,3.40
2022-12-26T10:14:12.313Z,2.80
2022-12-26T10:15:10.873Z,2.50
2022-12-26T10:16:10.905Z,4.60
2022-12-26T10:17:10.857Z,3.50
2022-12-26T10:18:11.202Z,4.20
2022-12-26T10:19:10.862Z,3.80
2022-12-26T10:20:10.857Z,4.00
2022-12-26T10:21:10.842Z,2.10
2022-12-26T10:22:10.837Z,3.90
2022-12-26T10:23:10.837Z,2.30
2022-12-26T10:24:10.829Z,4.50
2022-12-26T10:25:10.828Z,2.80
2022-12-26T10:26:10.825Z,3.70
2022-12-26T10:27:10.823Z,2.50
2022-12-26T10:28:10.824Z,3.30
2022-12-26T10:29:10.811Z,3.50
2022-12-26T10:30:10.840Z,2.80
2022-12-26T10:31:10.856Z,3.10
2022-12-26T10:32:10.802Z,2.00
2022-12-26T10:33:10.803Z,3.60
2022-12-26T10:34:10.794Z,3.20
2022-12-26T10:35:10.792Z,3.90
2022-12-26T10:36:10.789Z,3.20
2022-12-26T10:37:10.792Z,3.70
2022-12-26T10:38:10.784Z,2.60
2022-12-26T10:39:10.779Z,3.60
2022-12-26T10:40:10.781Z,2.60
2022-12-26T10:41:10.772Z,3.90
2022-12-26T10:42:10.767Z,2.60
2022-12-26T10:43:10.766Z,2.50
2022-12-26T10:44:10.763Z,2.80
2022-12-26T10:45:10.763Z,2.40
2022-12-26T10:46:10.818Z,2.80
2022-12-26T10:47:10.765Z,2.40
2022-12-26T10:48:10.757Z,2.30
2022-12-26T10:49:10.749Z,3.50
2022-12-26T10:50:10.738Z,2.70
2022-12-26T10:51:10.738Z,2.40
2022-12-26T10:52:10.735Z,4.60
2022-12-26T10:53:10.731Z,3.70
2022-12-26T10:54:10.727Z,3.80
2022-12-26T10:55:28.829Z,2.90
2022-12-26T10:56:14.777Z,4.40
2022-12-26T10:57:10.721Z,3.50
2022-12-26T10:58:10.714Z,1.90
2022-12-26T10:59:10.715Z,2.70
2022-12-26T11:00:10.708Z,3.20
2022-12-26T11:01:10.749Z,2.90
2022-12-26T11:02:10.954Z,2.90
2022-12-26T11:03:10.867Z,3.70
2022-12-26T11:04:10.693Z,3.20
2022-12-26T11:05:22.073Z,3.30
2022-12-26T11:06:10.744Z,2.90
2022-12-26T11:07:10.684Z,1.90
2022-12-26T11:08:10.677Z,2.40
2022-12-26T11:09:10.680Z,3.50
2022-12-26T11:10:10.673Z,3.50
2022-12-26T11:11:10.673Z,2.00
2022-12-26T11:12:10.664Z,3.50
2022-12-26T11:13:10.663Z,3.00
2022-12-26T11:14:10.655Z,3.70
2022-12-26T11:15:10.658Z,3.70
2022-12-26T11:16:10.731Z,3.70
2022-12-26T11:17:10.648Z,3.10
2022-12-26T11:18:10.658Z,2.30
2022-12-26T11:19:10.645Z,2.80
2022-12-26T11:20:10.634Z,2.30
2022-12-26T11:21:12.716Z,2.80
2022-12-26T11:22:10.629Z,3.70
2022-12-26T11:23:10.636Z,3.50
2022-12-26T11:24:10.633Z,2.70
2022-12-26T11:25:10.629Z,3.00
2022-12-26T11:26:10.614Z,2.90
2022-12-26T11:27:12.814Z,5.50
2022-12-26T11:28:10.609Z,2.90
2022-12-26T11:29:10.605Z,2.40
2022-12-26T11:30:10.601Z,3.90
2022-12-26T11:31:10.615Z,3.80
2022-12-26T11:32:10.593Z,2.20
2022-12-26T11:33:14.628Z,2.60
2022-12-26T11:34:10.614Z,3.00
2022-12-26T11:35:10.583Z,2.80
2022-12-26T11:36:10.583Z,4.00
2022-12-26T11:37:10.579Z,3.50
2022-12-26T11:38:10.572Z,2.70
2022-12-26T11:39:10.568Z,3.90
2022-12-26T11:40:10.566Z,3.50
2022-12-26T11:41:10.567Z,2.70
2022-12-26T11:42:10.562Z,3.90
2022-12-26T11:43:10.557Z,3.40
2022-12-26T11:44:10.552Z,3.40
2022-12-26T11:45:10.553Z,3.70
2022-12-26T11:46:10.624Z,3.20
2022-12-26T11:47:10.541Z,3.00
2022-12-26T11:48:10.549Z,3.00
2022-12-26T11:49:10.534Z,3.00
2022-12-26T11:50:10.546Z,3.70
2022-12-26T11:51:10.525Z,4.20
2022-12-26T11:52:10.527Z,3.60
2022-12-26T11:53:10.522Z,2.80
2022-12-26T11:54:10.516Z,3.00
2022-12-26T11:55:10.514Z,2.40
2022-12-26T11:56:10.508Z,4.30
2022-12-26T11:57:10.505Z,4.00
2022-12-26T11:58:10.540Z,3.70
2022-12-26T11:59:10.502Z,2.90
2022-12-26T12:00:10.504Z,2.50
2022-12-26T12:01:10.510Z,3.20
2022-12-26T12:02:10.506Z,3.90
2022-12-26T12:03:10.487Z,3.30
2022-12-26T12:04:10.482Z,3.00
2022-12-26T12:05:10.483Z,2.70
2022-12-26T12:06:10.494Z,2.50
2022-12-26T12:07:10.474Z,2.60
2022-12-26T12:08:10.642Z,3.70
2022-12-26T12:09:10.466Z,4.00
2022-12-26T12:10:10.458Z,3.40
2022-12-26T12:11:10.464Z,4.60
2022-12-26T12:12:10.452Z,3.40
2022-12-26T12:13:10.462Z,2.60
2022-12-26T12:14:10.459Z,2.60
2022-12-26T12:15:10.440Z,4.30
2022-12-26T12:16:10.468Z,2.70
2022-12-26T12:17:10.447Z,3.40
2022-12-26T12:18:10.447Z,2.80
2022-12-26T12:19:10.432Z,3.30
2022-12-26T12:20:10.432Z,2.40
2022-12-26T12:21:10.420Z,2.40
2022-12-26T12:22:10.431Z,2.50
2022-12-26T12:23:10.415Z,5.00
2022-12-26T12:24:10.434Z,3.50
2022-12-26T12:25:10.408Z,2.80
2022-12-26T12:26:10.405Z,5.10
2022-12-26T12:27:10.399Z,2.30
2022-12-26T12:28:10.395Z,3.50
2022-12-26T12:29:10.394Z,4.90
2022-12-26T12:30:10.393Z,4.20
2022-12-26T12:31:10.468Z,3.30
2022-12-26T12:32:10.389Z,3.90
2022-12-26T12:33:10.399Z,2.80
2022-12-26T12:34:10.374Z,3.60
2022-12-26T12:35:10.381Z,4.10
2022-12-26T12:36:10.363Z,3.70
2022-12-26T12:37:10.370Z,2.70
2022-12-26T12:38:10.382Z,3.30
2022-12-26T12:39:10.361Z,4.10
2022-12-26T12:40:10.352Z,3.10
2022-12-26T12:41:10.350Z,3.20
2022-12-26T12:42:10.345Z,2.80
2022-12-26T12:43:10.342Z,5.50
2022-12-26T12:44:10.352Z,2.60
2022-12-26T12:45:10.344Z,4.10
2022-12-26T12:46:10.391Z,2.90
2022-12-26T12:47:10.330Z,3.40
2022-12-26T12:48:10.327Z,3.90
2022-12-26T12:49:10.328Z,2.40
2022-12-26T12:50:10.314Z,2.50
2022-12-26T12:51:10.311Z,4.50
2022-12-26T12:52:10.315Z,2.40
2022-12-26T12:53:10.308Z,3.30
2022-12-26T12:54:10.322Z,2.80
2022-12-26T12:55:10.318Z,3.70
2022-12-26T12:56:10.305Z,5.40
2022-12-26T12:57:10.302Z,2.50
2022-12-26T12:58:10.290Z,2.00
2022-12-26T12:59:10.288Z,3.30
2022-12-26T13:00:10.315Z,3.60
2022-12-26T13:01:10.384Z,3.10
2022-12-26T13:02:13.962Z,4.00
2022-12-26T13:03:10.319Z,4.30
2022-12-26T13:04:10.261Z,2.30
2022-12-26T13:05:10.258Z,3.10
2022-12-26T13:06:10.254Z,3.70
2022-12-26T13:07:10.264Z,4.30
2022-12-26T13:08:10.249Z,3.00
2022-12-26T13:09:10.300Z,5.40
2022-12-26T13:10:10.303Z,5.30
2022-12-26T13:11:10.236Z,5.20
2022-12-26T13:12:10.233Z,3.20
2022-12-26T13:13:10.232Z,3.80
2022-12-26T13:14:10.226Z,2.80
2022-12-26T13:15:10.220Z,2.80
2022-12-26T13:16:10.260Z,3.00
2022-12-26T13:17:10.213Z,4.00